sensor_id;sensor_type;location;lat;lon;timestamp;P1;durP1;ratioP1;P2;durP2;ratioP2
34695;SDS011;20918;51.138;17.370;2022-12-07T00:00:49;16.65;;;10.35;;
34695;SDS011;20918;51.138;17.370;2022-12-07T00:03:51;16.15;;;10.88;;
34695;SDS011;20918;51.138;17.370;2022-12-07T00:06:56;20.02;;;10.58;;
34695;SDS011;20918;51.138;17.370;2022-12-07T00:09:58;13.45;;;9.70;;
34695;SDS011;20918;51.138;17.370;2022-12-07T00:12:59;18.52;;;11.35;;
34695;SDS011;20918;51.138;17.370;2022-12-07T00:16:08;15.90;;;9.93;;
34695;SDS011;20918;51.138;17.370;2022-12-07T00:19:12;16.32;;;9.73;;
34695;SDS011;20918;51.138;17.370;2022-12-07T00:22:15;13.78;;;9.48;;
34695;SDS011;20918;51.138;17.370;2022-12-07T00:25:16;14.83;;;9.70;;
34695;SDS011;20918;51.138;17.370;2022-12-07T00:28:17;13.58;;;8.90;;
34695;SDS011;20918;51.138;17.370;2022-12-07T00:31:19;13.68;;;9.15;;
34695;SDS011;20918;51.138;17.370;2022-12-07T00:34:23;14.38;;;9.28;;
34695;SDS011;20918;51.138;17.370;2022-12-07T00:37:24;15.38;;;9.90;;
34695;SDS011;20918;51.138;17.370;2022-12-07T00:40:28;11.50;;;9.08;;
34695;SDS011;20918;51.138;17.370;2022-12-07T00:43:30;10.93;;;9.08;;
34695;SDS011;20918;51.138;17.370;2022-12-07T00:46:31;15.72;;;9.00;;
34695;SDS011;20918;51.138;17.370;2022-12-07T00:49:33;14.33;;;9.13;;
34695;SDS011;20918;51.138;17.370;2022-12-07T00:52:34;12.50;;;8.35;;
34695;SDS011;20918;51.138;17.370;2022-12-07T00:55:35;9.28;;;7.67;;
34695;SDS011;20918;51.138;17.370;2022-12-07T00:58:36;12.70;;;8.43;;
34695;SDS011;20918;51.138;17.370;2022-12-07T01:01:38;11.12;;;7.40;;
34695;SDS011;20918;51.138;17.370;2022-12-07T01:04:39;11.97;;;8.23;;
34695;SDS011;20918;51.138;17.370;2022-12-07T01:07:40;11.48;;;7.92;;
34695;SDS011;20918;51.138;17.370;2022-12-07T01:10:41;10.30;;;7.10;;
34695;SDS011;20918;51.138;17.370;2022-12-07T01:13:42;9.53;;;6.83;;
34695;SDS011;20918;51.138;17.370;2022-12-07T01:16:45;8.00;;;6.67;;
34695;SDS011;20918;51.138;17.370;2022-12-07T01:19:46;11.70;;;7.28;;
34695;SDS011;20918;51.138;17.370;2022-12-07T01:22:49;11.55;;;7.12;;
34695;SDS011;20918;51.138;17.370;2022-12-07T01:25:56;8.15;;;5.95;;
34695;SDS011;20918;51.138;17.370;2022-12-07T01:28:59;9.23;;;6.58;;
34695;SDS011;20918;51.138;17.370;2022-12-07T01:32:01;8.38;;;6.40;;
34695;SDS011;20918;51.138;17.370;2022-12-07T01:35:02;8.10;;;6.30;;
34695;SDS011;20918;51.138;17.370;2022-12-07T01:38:05;9.65;;;6.50;;
34695;SDS011;20918;51.138;17.370;2022-12-07T01:41:07;8.25;;;6.25;;
34695;SDS011;20918;51.138;17.370;2022-12-07T01:47:26;9.23;;;6.20;;
34695;SDS011;20918;51.138;17.370;2022-12-07T01:50:28;10.38;;;5.72;;
34695;SDS011;20918;51.138;17.370;2022-12-07T01:53:31;6.00;;;5.30;;
34695;SDS011;20918;51.138;17.370;2022-12-07T01:56:37;6.53;;;5.55;;
34695;SDS011;20918;51.138;17.370;2022-12-07T01:59:45;7.70;;;5.60;;
34695;SDS011;20918;51.138;17.370;2022-12-07T02:06:19;7.10;;;5.20;;
34695;SDS011;20918;51.138;17.370;2022-12-07T02:09:24;6.97;;;4.60;;
34695;SDS011;20918;51.138;17.370;2022-12-07T02:12:25;8.28;;;5.22;;
34695;SDS011;20918;51.138;17.370;2022-12-07T02:15:44;6.90;;;4.95;;
34695;SDS011;20918;51.138;17.370;2022-12-07T02:22:00;6.37;;;4.83;;
34695;SDS011;20918;51.138;17.370;2022-12-07T02:25:37;5.28;;;4.60;;
34695;SDS011;20918;51.138;17.370;2022-12-07T02:32:22;6.17;;;4.37;;
34695;SDS011;20918;51.138;17.370;2022-12-07T02:35:32;5.95;;;4.75;;
34695;SDS011;20918;51.138;17.370;2022-12-07T02:38:44;5.97;;;4.40;;
34695;SDS011;20918;51.138;17.370;2022-12-07T02:41:53;7.03;;;4.67;;
34695;SDS011;20918;51.138;17.370;2022-12-07T02:44:58;5.10;;;4.60;;
34695;SDS011;20918;51.138;17.370;2022-12-07T02:48:01;6.22;;;4.80;;
34695;SDS011;20918;51.138;17.370;2022-12-07T02:51:04;4.37;;;3.52;;
34695;SDS011;20918;51.138;17.370;2022-12-07T02:54:13;3.72;;;3.22;;
34695;SDS011;20918;51.138;17.370;2022-12-07T03:00:26;4.25;;;3.62;;
34695;SDS011;20918;51.138;17.370;2022-12-07T03:03:29;3.45;;;3.15;;
34695;SDS011;20918;51.138;17.370;2022-12-07T03:06:34;3.75;;;3.37;;
34695;SDS011;20918;51.138;17.370;2022-12-07T03:09:43;3.22;;;2.90;;
34695;SDS011;20918;51.138;17.370;2022-12-07T03:16:32;2.80;;;2.55;;
34695;SDS011;20918;51.138;17.370;2022-12-07T03:19:46;3.25;;;2.42;;
34695;SDS011;20918;51.138;17.370;2022-12-07T03:22:47;2.80;;;2.50;;
34695;SDS011;20918;51.138;17.370;2022-12-07T03:25:52;3.80;;;1.95;;
34695;SDS011;20918;51.138;17.370;2022-12-07T03:28:58;2.40;;;2.20;;
34695;SDS011;20918;51.138;17.370;2022-12-07T03:32:12;2.80;;;2.17;;
34695;SDS011;20918;51.138;17.370;2022-12-07T03:35:34;3.22;;;2.45;;
34695;SDS011;20918;51.138;17.370;2022-12-07T03:38:52;2.95;;;2.22;;
34695;SDS011;20918;51.138;17.370;2022-12-07T03:42:05;2.47;;;2.27;;
34695;SDS011;20918;51.138;17.370;2022-12-07T03:45:09;2.80;;;2.05;;
34695;SDS011;20918;51.138;17.370;2022-12-07T03:55:27;2.87;;;2.58;;
34695;SDS011;20918;51.138;17.370;2022-12-07T03:58:35;2.17;;;1.98;;
34695;SDS011;20918;51.138;17.370;2022-12-07T04:01:37;4.15;;;2.17;;
34695;SDS011;20918;51.138;17.370;2022-12-07T04:04:39;4.22;;;2.37;;
34695;SDS011;20918;51.138;17.370;2022-12-07T04:07:40;2.60;;;2.40;;
34695;SDS011;20918;51.138;17.370;2022-12-07T04:10:42;2.60;;;2.40;;
34695;SDS011;20918;51.138;17.370;2022-12-07T04:13:43;2.60;;;2.40;;
34695;SDS011;20918;51.138;17.370;2022-12-07T04:17:02;4.05;;;3.10;;
34695;SDS011;20918;51.138;17.370;2022-12-07T04:20:05;10.65;;;4.45;;
34695;SDS011;20918;51.138;17.370;2022-12-07T04:23:07;16.30;;;5.62;;
34695;SDS011;20918;51.138;17.370;2022-12-07T04:26:08;6.22;;;4.08;;
34695;SDS011;20918;51.138;17.370;2022-12-07T04:29:10;8.88;;;4.10;;
34695;SDS011;20918;51.138;17.370;2022-12-07T04:32:11;4.72;;;3.02;;
34695;SDS011;20918;51.138;17.370;2022-12-07T04:35:12;4.80;;;3.30;;
34695;SDS011;20918;51.138;17.370;2022-12-07T04:38:14;6.65;;;2.70;;
34695;SDS011;20918;51.138;17.370;2022-12-07T04:41:15;3.80;;;2.58;;
34695;SDS011;20918;51.138;17.370;2022-12-07T04:44:16;4.30;;;3.05;;
34695;SDS011;20918;51.138;17.370;2022-12-07T04:47:18;4.58;;;2.60;;
34695;SDS011;20918;51.138;17.370;2022-12-07T04:50:20;2.70;;;2.50;;
34695;SDS011;20918;51.138;17.370;2022-12-07T04:53:21;4.03;;;2.80;;
34695;SDS011;20918;51.138;17.370;2022-12-07T04:56:23;3.85;;;3.27;;
34695;SDS011;20918;51.138;17.370;2022-12-07T04:59:27;5.83;;;3.92;;
34695;SDS011;20918;51.138;17.370;2022-12-07T05:02:28;4.12;;;3.55;;
34695;SDS011;20918;51.138;17.370;2022-12-07T05:05:30;5.72;;;3.85;;
34695;SDS011;20918;51.138;17.370;2022-12-07T05:08:34;4.37;;;3.60;;
34695;SDS011;20918;51.138;17.370;2022-12-07T05:11:35;4.15;;;3.62;;
34695;SDS011;20918;51.138;17.370;2022-12-07T05:14:39;5.53;;;3.83;;
34695;SDS011;20918;51.138;17.370;2022-12-07T05:17:41;3.77;;;3.47;;
34695;SDS011;20918;51.138;17.370;2022-12-07T05:20:42;6.08;;;3.52;;
34695;SDS011;20918;51.138;17.370;2022-12-07T05:23:46;7.50;;;3.77;;
34695;SDS011;20918;51.138;17.370;2022-12-07T05:26:48;6.67;;;3.77;;
34695;SDS011;20918;51.138;17.370;2022-12-07T05:29:49;5.45;;;3.42;;
34695;SDS011;20918;51.138;17.370;2022-12-07T05:32:52;6.87;;;3.62;;
34695;SDS011;20918;51.138;17.370;2022-12-07T05:35:53;7.40;;;4.28;;
34695;SDS011;20918;51.138;17.370;2022-12-07T05:38:54;4.00;;;3.58;;
34695;SDS011;20918;51.138;17.370;2022-12-07T05:41:56;3.75;;;3.35;;
34695;SDS011;20918;51.138;17.370;2022-12-07T05:45:12;4.35;;;3.27;;
34695;SDS011;20918;51.138;17.370;2022-12-07T05:48:13;5.22;;;3.58;;
34695;SDS011;20918;51.138;17.370;2022-12-07T05:51:14;4.65;;;4.12;;
34695;SDS011;20918;51.138;17.370;2022-12-07T05:54:16;4.72;;;3.77;;
34695;SDS011;20918;51.138;17.370;2022-12-07T05:57:18;7.25;;;4.40;;
34695;SDS011;20918;51.138;17.370;2022-12-07T06:00:19;5.85;;;4.47;;
34695;SDS011;20918;51.138;17.370;2022-12-07T06:03:22;6.80;;;4.75;;
34695;SDS011;20918;51.138;17.370;2022-12-07T06:06:24;5.70;;;4.92;;
34695;SDS011;20918;51.138;17.370;2022-12-07T06:09:25;6.62;;;5.67;;
34695;SDS011;20918;51.138;17.370;2022-12-07T06:12:28;9.88;;;6.22;;
34695;SDS011;20918;51.138;17.370;2022-12-07T06:15:36;10.43;;;6.60;;
34695;SDS011;20918;51.138;17.370;2022-12-07T06:18:37;9.45;;;7.20;;
34695;SDS011;20918;51.138;17.370;2022-12-07T06:21:38;12.00;;;8.00;;
34695;SDS011;20918;51.138;17.370;2022-12-07T06:24:42;10.15;;;8.30;;
34695;SDS011;20918;51.138;17.370;2022-12-07T06:27:43;13.43;;;9.43;;
34695;SDS011;20918;51.138;17.370;2022-12-07T06:30:44;15.40;;;9.25;;
34695;SDS011;20918;51.138;17.370;2022-12-07T06:33:45;17.57;;;10.72;;
34695;SDS011;20918;51.138;17.370;2022-12-07T06:36:46;16.70;;;10.65;;
34695;SDS011;20918;51.138;17.370;2022-12-07T06:39:50;20.27;;;11.45;;
34695;SDS011;20918;51.138;17.370;2022-12-07T06:42:51;16.75;;;11.43;;
34695;SDS011;20918;51.138;17.370;2022-12-07T06:45:52;17.75;;;12.15;;
34695;SDS011;20918;51.138;17.370;2022-12-07T06:48:53;19.65;;;12.53;;
34695;SDS011;20918;51.138;17.370;2022-12-07T06:51:54;19.87;;;13.05;;
34695;SDS011;20918;51.138;17.370;2022-12-07T06:54:55;20.15;;;13.50;;
34695;SDS011;20918;51.138;17.370;2022-12-07T06:57:56;21.17;;;13.58;;
34695;SDS011;20918;51.138;17.370;2022-12-07T07:00:58;24.70;;;14.78;;
34695;SDS011;20918;51.138;17.370;2022-12-07T07:03:59;24.30;;;14.95;;
34695;SDS011;20918;51.138;17.370;2022-12-07T07:07:01;25.92;;;15.95;;
34695;SDS011;20918;51.138;17.370;2022-12-07T07:10:02;22.42;;;15.50;;
34695;SDS011;20918;51.138;17.370;2022-12-07T07:13:04;24.50;;;14.85;;
34695;SDS011;20918;51.138;17.370;2022-12-07T07:16:07;24.70;;;14.63;;
34695;SDS011;20918;51.138;17.370;2022-12-07T07:19:08;24.77;;;14.95;;
34695;SDS011;20918;51.138;17.370;2022-12-07T07:22:09;20.72;;;14.13;;
34695;SDS011;20918;51.138;17.370;2022-12-07T07:25:11;24.35;;;15.45;;
34695;SDS011;20918;51.138;17.370;2022-12-07T07:28:12;25.77;;;14.65;;
34695;SDS011;20918;51.138;17.370;2022-12-07T07:31:13;26.00;;;15.00;;
34695;SDS011;20918;51.138;17.370;2022-12-07T07:34:14;21.80;;;13.72;;
34695;SDS011;20918;51.138;17.370;2022-12-07T07:37:16;26.35;;;14.35;;
34695;SDS011;20918;51.138;17.370;2022-12-07T07:40:17;26.65;;;15.18;;
34695;SDS011;20918;51.138;17.370;2022-12-07T07:43:18;24.12;;;15.50;;
34695;SDS011;20918;51.138;17.370;2022-12-07T07:46:19;27.70;;;14.65;;
34695;SDS011;20918;51.138;17.370;2022-12-07T07:49:20;21.80;;;14.20;;
34695;SDS011;20918;51.138;17.370;2022-12-07T07:52:22;26.65;;;15.68;;
34695;SDS011;20918;51.138;17.370;2022-12-07T07:55:23;22.80;;;13.30;;
34695;SDS011;20918;51.138;17.370;2022-12-07T07:58:24;30.30;;;17.27;;
34695;SDS011;20918;51.138;17.370;2022-12-07T08:01:25;26.77;;;14.30;;
34695;SDS011;20918;51.138;17.370;2022-12-07T08:04:26;24.27;;;13.90;;
34695;SDS011;20918;51.138;17.370;2022-12-07T08:07:28;25.15;;;14.35;;
34695;SDS011;20918;51.138;17.370;2022-12-07T08:10:29;21.40;;;12.90;;
34695;SDS011;20918;51.138;17.370;2022-12-07T08:13:32;23.40;;;14.25;;
34695;SDS011;20918;51.138;17.370;2022-12-07T08:16:33;23.22;;;14.90;;
34695;SDS011;20918;51.138;17.370;2022-12-07T08:19:34;26.07;;;15.05;;
34695;SDS011;20918;51.138;17.370;2022-12-07T08:22:35;26.65;;;15.58;;
34695;SDS011;20918;51.138;17.370;2022-12-07T08:25:37;22.77;;;15.38;;
34695;SDS011;20918;51.138;17.370;2022-12-07T08:28:38;22.50;;;13.30;;
34695;SDS011;20918;51.138;17.370;2022-12-07T08:31:40;21.62;;;15.25;;
34695;SDS011;20918;51.138;17.370;2022-12-07T08:34:41;22.77;;;15.63;;
34695;SDS011;20918;51.138;17.370;2022-12-07T08:37:43;21.80;;;14.50;;
34695;SDS011;20918;51.138;17.370;2022-12-07T08:40:44;24.47;;;13.78;;
34695;SDS011;20918;51.138;17.370;2022-12-07T08:43:48;20.27;;;12.28;;
34695;SDS011;20918;51.138;17.370;2022-12-07T08:46:50;22.30;;;14.00;;
34695;SDS011;20918;51.138;17.370;2022-12-07T08:49:58;24.85;;;14.45;;
34695;SDS011;20918;51.138;17.370;2022-12-07T08:53:01;21.97;;;14.85;;
34695;SDS011;20918;51.138;17.370;2022-12-07T08:56:05;25.27;;;14.65;;
34695;SDS011;20918;51.138;17.370;2022-12-07T08:59:07;23.52;;;15.68;;
34695;SDS011;20918;51.138;17.370;2022-12-07T09:02:09;23.73;;;14.07;;
34695;SDS011;20918;51.138;17.370;2022-12-07T09:05:11;20.40;;;13.20;;
34695;SDS011;20918;51.138;17.370;2022-12-07T09:08:14;16.30;;;11.15;;
34695;SDS011;20918;51.138;17.370;2022-12-07T09:11:16;17.65;;;11.20;;
34695;SDS011;20918;51.138;17.370;2022-12-07T09:14:17;20.45;;;12.25;;
34695;SDS011;20918;51.138;17.370;2022-12-07T09:17:19;22.73;;;12.00;;
34695;SDS011;20918;51.138;17.370;2022-12-07T09:20:20;19.45;;;12.33;;
34695;SDS011;20918;51.138;17.370;2022-12-07T09:23:22;21.10;;;13.32;;
34695;SDS011;20918;51.138;17.370;2022-12-07T09:26:23;21.77;;;13.28;;
34695;SDS011;20918;51.138;17.370;2022-12-07T09:29:24;18.25;;;10.82;;
34695;SDS011;20918;51.138;17.370;2022-12-07T09:32:26;16.62;;;11.15;;
34695;SDS011;20918;51.138;17.370;2022-12-07T09:35:27;24.12;;;13.62;;
34695;SDS011;20918;51.138;17.370;2022-12-07T09:38:28;16.87;;;10.58;;
34695;SDS011;20918;51.138;17.370;2022-12-07T09:41:31;16.17;;;10.90;;
34695;SDS011;20918;51.138;17.370;2022-12-07T09:44:34;16.23;;;10.90;;
34695;SDS011;20918;51.138;17.370;2022-12-07T09:47:36;15.03;;;10.70;;
34695;SDS011;20918;51.138;17.370;2022-12-07T09:50:37;18.45;;;11.30;;
34695;SDS011;20918;51.138;17.370;2022-12-07T09:53:40;18.73;;;10.50;;
34695;SDS011;20918;51.138;17.370;2022-12-07T09:56:43;13.75;;;9.25;;
34695;SDS011;20918;51.138;17.370;2022-12-07T09:59:45;13.98;;;9.68;;
34695;SDS011;20918;51.138;17.370;2022-12-07T10:02:57;12.33;;;9.13;;
34695;SDS011;20918;51.138;17.370;2022-12-07T10:06:00;16.23;;;9.35;;
34695;SDS011;20918;51.138;17.370;2022-12-07T10:09:07;12.78;;;9.33;;
34695;SDS011;20918;51.138;17.370;2022-12-07T10:12:12;11.95;;;8.45;;
34695;SDS011;20918;51.138;17.370;2022-12-07T10:15:14;11.30;;;7.80;;
34695;SDS011;20918;51.138;17.370;2022-12-07T10:21:41;10.20;;;6.50;;
34695;SDS011;20918;51.138;17.370;2022-12-07T10:24:48;8.20;;;6.33;;
34695;SDS011;20918;51.138;17.370;2022-12-07T10:31:16;12.33;;;7.50;;
34695;SDS011;20918;51.138;17.370;2022-12-07T10:37:26;10.88;;;7.65;;
34695;SDS011;20918;51.138;17.370;2022-12-07T10:40:32;10.45;;;7.92;;
34695;SDS011;20918;51.138;17.370;2022-12-07T10:43:36;12.03;;;8.25;;
34695;SDS011;20918;51.138;17.370;2022-12-07T10:57:05;11.48;;;7.85;;
34695;SDS011;20918;51.138;17.370;2022-12-07T11:00:43;16.12;;;10.15;;
34695;SDS011;20918;51.138;17.370;2022-12-07T11:21:17;16.27;;;10.13;;
34695;SDS011;20918;51.138;17.370;2022-12-07T11:24:32;14.35;;;9.63;;
34695;SDS011;20918;51.138;17.370;2022-12-07T11:34:49;14.83;;;9.18;;
34695;SDS011;20918;51.138;17.370;2022-12-07T11:42:00;9.13;;;5.67;;
34695;SDS011;20918;51.138;17.370;2022-12-07T11:45:16;7.10;;;5.05;;
34695;SDS011;20918;51.138;17.370;2022-12-07T11:48:38;7.10;;;3.90;;
34695;SDS011;20918;51.138;17.370;2022-12-07T11:51:49;8.45;;;4.45;;
34695;SDS011;20918;51.138;17.370;2022-12-07T11:54:53;6.80;;;4.65;;
34695;SDS011;20918;51.138;17.370;2022-12-07T11:58:01;10.98;;;5.60;;
34695;SDS011;20918;51.138;17.370;2022-12-07T12:01:13;6.28;;;4.53;;
34695;SDS011;20918;51.138;17.370;2022-12-07T12:04:41;9.55;;;5.33;;
34695;SDS011;20918;51.138;17.370;2022-12-07T12:07:54;8.95;;;5.78;;
34695;SDS011;20918;51.138;17.370;2022-12-07T12:15:03;12.60;;;7.90;;
34695;SDS011;20918;51.138;17.370;2022-12-07T12:21:43;15.45;;;9.45;;
34695;SDS011;20918;51.138;17.370;2022-12-07T12:24:52;11.73;;;8.13;;
34695;SDS011;20918;51.138;17.370;2022-12-07T12:27:55;9.55;;;7.08;;
34695;SDS011;20918;51.138;17.370;2022-12-07T12:34:30;8.15;;;5.42;;
34695;SDS011;20918;51.138;17.370;2022-12-07T12:37:44;10.03;;;5.70;;
34695;SDS011;20918;51.138;17.370;2022-12-07T12:40:46;7.17;;;5.62;;
34695;SDS011;20918;51.138;17.370;2022-12-07T12:43:49;12.18;;;5.85;;
34695;SDS011;20918;51.138;17.370;2022-12-07T12:50:42;8.30;;;5.42;;
34695;SDS011;20918;51.138;17.370;2022-12-07T12:53:43;8.50;;;5.50;;
34695;SDS011;20918;51.138;17.370;2022-12-07T13:00:27;9.65;;;6.47;;
34695;SDS011;20918;51.138;17.370;2022-12-07T13:03:29;16.17;;;7.12;;
34695;SDS011;20918;51.138;17.370;2022-12-07T13:06:34;11.45;;;6.83;;
34695;SDS011;20918;51.138;17.370;2022-12-07T13:09:38;11.25;;;6.55;;
34695;SDS011;20918;51.138;17.370;2022-12-07T13:12:43;8.80;;;5.25;;
34695;SDS011;20918;51.138;17.370;2022-12-07T13:22:50;8.15;;;4.92;;
34695;SDS011;20918;51.138;17.370;2022-12-07T13:29:24;7.58;;;5.75;;
34695;SDS011;20918;51.138;17.370;2022-12-07T13:32:26;6.70;;;5.40;;
34695;SDS011;20918;51.138;17.370;2022-12-07T13:35:31;9.15;;;5.67;;
34695;SDS011;20918;51.138;17.370;2022-12-07T13:38:38;11.35;;;5.83;;
34695;SDS011;20918;51.138;17.370;2022-12-07T13:41:43;10.08;;;5.60;;
34695;SDS011;20918;51.138;17.370;2022-12-07T13:44:50;8.05;;;5.35;;
34695;SDS011;20918;51.138;17.370;2022-12-07T13:47:54;8.68;;;6.08;;
34695;SDS011;20918;51.138;17.370;2022-12-07T13:51:00;9.40;;;4.83;;
34695;SDS011;20918;51.138;17.370;2022-12-07T13:54:10;11.10;;;6.50;;
34695;SDS011;20918;51.138;17.370;2022-12-07T13:57:14;10.25;;;6.62;;
34695;SDS011;20918;51.138;17.370;2022-12-07T14:03:25;11.03;;;6.50;;
34695;SDS011;20918;51.138;17.370;2022-12-07T14:06:29;10.00;;;6.17;;
34695;SDS011;20918;51.138;17.370;2022-12-07T14:09:31;9.20;;;5.50;;
34695;SDS011;20918;51.138;17.370;2022-12-07T14:12:32;8.25;;;5.42;;
34695;SDS011;20918;51.138;17.370;2022-12-07T14:15:37;12.98;;;5.42;;
34695;SDS011;20918;51.138;17.370;2022-12-07T14:18:40;7.60;;;5.45;;
34695;SDS011;20918;51.138;17.370;2022-12-07T14:21:42;8.80;;;6.05;;
34695;SDS011;20918;51.138;17.370;2022-12-07T14:24:43;9.33;;;6.25;;
34695;SDS011;20918;51.138;17.370;2022-12-07T14:31:01;11.78;;;6.53;;
34695;SDS011;20918;51.138;17.370;2022-12-07T14:34:03;13.50;;;6.83;;
34695;SDS011;20918;51.138;17.370;2022-12-07T14:37:07;12.00;;;5.90;;
34695;SDS011;20918;51.138;17.370;2022-12-07T14:40:18;7.62;;;5.50;;
34695;SDS011;20918;51.138;17.370;2022-12-07T14:43:28;7.65;;;5.20;;
34695;SDS011;20918;51.138;17.370;2022-12-07T14:46:29;9.55;;;5.40;;
34695;SDS011;20918;51.138;17.370;2022-12-07T14:49:30;8.73;;;5.30;;
34695;SDS011;20918;51.138;17.370;2022-12-07T14:52:32;8.00;;;4.60;;
34695;SDS011;20918;51.138;17.370;2022-12-07T14:55:34;10.68;;;6.08;;
34695;SDS011;20918;51.138;17.370;2022-12-07T14:58:37;10.13;;;5.37;;
34695;SDS011;20918;51.138;17.370;2022-12-07T15:01:38;13.38;;;7.45;;
34695;SDS011;20918;51.138;17.370;2022-12-07T15:04:40;14.38;;;7.67;;
34695;SDS011;20918;51.138;17.370;2022-12-07T15:07:41;10.28;;;7.20;;
34695;SDS011;20918;51.138;17.370;2022-12-07T15:10:43;9.98;;;6.92;;
34695;SDS011;20918;51.138;17.370;2022-12-07T15:13:48;11.35;;;6.50;;
34695;SDS011;20918;51.138;17.370;2022-12-07T15:17:09;11.00;;;7.22;;
34695;SDS011;20918;51.138;17.370;2022-12-07T15:20:15;13.05;;;7.28;;
34695;SDS011;20918;51.138;17.370;2022-12-07T15:23:17;11.83;;;7.00;;
34695;SDS011;20918;51.138;17.370;2022-12-07T15:26:18;12.05;;;7.03;;
34695;SDS011;20918;51.138;17.370;2022-12-07T15:29:20;14.35;;;8.28;;
34695;SDS011;20918;51.138;17.370;2022-12-07T15:32:22;16.00;;;7.85;;
34695;SDS011;20918;51.138;17.370;2022-12-07T15:35:23;12.37;;;7.47;;
34695;SDS011;20918;51.138;17.370;2022-12-07T15:38:25;18.27;;;8.58;;
34695;SDS011;20918;51.138;17.370;2022-12-07T15:41:27;11.97;;;7.30;;
34695;SDS011;20918;51.138;17.370;2022-12-07T15:44:28;14.58;;;8.33;;
34695;SDS011;20918;51.138;17.370;2022-12-07T15:47:48;20.32;;;9.45;;
34695;SDS011;20918;51.138;17.370;2022-12-07T15:50:49;35.00;;;15.15;;
34695;SDS011;20918;51.138;17.370;2022-12-07T15:53:53;22.13;;;11.30;;
34695;SDS011;20918;51.138;17.370;2022-12-07T15:56:55;19.48;;;10.70;;
34695;SDS011;20918;51.138;17.370;2022-12-07T15:59:58;25.32;;;12.82;;
34695;SDS011;20918;51.138;17.370;2022-12-07T16:03:01;17.70;;;9.88;;
34695;SDS011;20918;51.138;17.370;2022-12-07T16:06:03;16.35;;;7.47;;
34695;SDS011;20918;51.138;17.370;2022-12-07T16:09:05;12.70;;;8.15;;
34695;SDS011;20918;51.138;17.370;2022-12-07T16:12:06;13.95;;;8.80;;
34695;SDS011;20918;51.138;17.370;2022-12-07T16:15:08;18.20;;;9.93;;
34695;SDS011;20918;51.138;17.370;2022-12-07T16:18:10;12.93;;;7.97;;
34695;SDS011;20918;51.138;17.370;2022-12-07T16:21:14;15.10;;;9.13;;
34695;SDS011;20918;51.138;17.370;2022-12-07T16:24:15;15.85;;;9.70;;
34695;SDS011;20918;51.138;17.370;2022-12-07T16:27:17;17.05;;;10.82;;
34695;SDS011;20918;51.138;17.370;2022-12-07T16:30:18;17.90;;;11.43;;
34695;SDS011;20918;51.138;17.370;2022-12-07T16:33:20;16.80;;;9.88;;
34695;SDS011;20918;51.138;17.370;2022-12-07T16:36:21;16.42;;;9.63;;
34695;SDS011;20918;51.138;17.370;2022-12-07T16:39:25;18.30;;;10.18;;
34695;SDS011;20918;51.138;17.370;2022-12-07T16:42:26;20.97;;;11.30;;
34695;SDS011;20918;51.138;17.370;2022-12-07T16:45:36;17.70;;;9.88;;
34695;SDS011;20918;51.138;17.370;2022-12-07T16:48:38;18.65;;;9.45;;
34695;SDS011;20918;51.138;17.370;2022-12-07T16:51:41;21.68;;;11.35;;
34695;SDS011;20918;51.138;17.370;2022-12-07T16:54:47;28.45;;;14.10;;
34695;SDS011;20918;51.138;17.370;2022-12-07T16:57:50;28.32;;;12.30;;
34695;SDS011;20918;51.138;17.370;2022-12-07T17:00:52;22.85;;;11.83;;
34695;SDS011;20918;51.138;17.370;2022-12-07T17:03:53;21.45;;;11.48;;
34695;SDS011;20918;51.138;17.370;2022-12-07T17:06:55;24.57;;;12.90;;
34695;SDS011;20918;51.138;17.370;2022-12-07T17:09:56;19.25;;;10.00;;
34695;SDS011;20918;51.138;17.370;2022-12-07T17:12:57;16.35;;;8.80;;
34695;SDS011;20918;51.138;17.370;2022-12-07T17:15:59;17.82;;;9.50;;
34695;SDS011;20918;51.138;17.370;2022-12-07T17:19:04;16.48;;;10.00;;
34695;SDS011;20918;51.138;17.370;2022-12-07T17:22:06;20.35;;;9.83;;
34695;SDS011;20918;51.138;17.370;2022-12-07T17:25:08;24.63;;;10.95;;
34695;SDS011;20918;51.138;17.370;2022-12-07T17:28:10;33.88;;;14.58;;
34695;SDS011;20918;51.138;17.370;2022-12-07T17:31:12;21.12;;;11.43;;
34695;SDS011;20918;51.138;17.370;2022-12-07T17:34:15;18.27;;;10.13;;
34695;SDS011;20918;51.138;17.370;2022-12-07T17:37:17;18.85;;;10.38;;
34695;SDS011;20918;51.138;17.370;2022-12-07T17:40:18;18.00;;;9.88;;
34695;SDS011;20918;51.138;17.370;2022-12-07T17:43:19;17.52;;;8.78;;
34695;SDS011;20918;51.138;17.370;2022-12-07T17:46:20;14.03;;;8.23;;
34695;SDS011;20918;51.138;17.370;2022-12-07T17:49:22;17.10;;;8.93;;
34695;SDS011;20918;51.138;17.370;2022-12-07T17:52:26;17.80;;;9.48;;
34695;SDS011;20918;51.138;17.370;2022-12-07T17:55:46;14.78;;;8.48;;
34695;SDS011;20918;51.138;17.370;2022-12-07T17:58:47;16.17;;;8.15;;
34695;SDS011;20918;51.138;17.370;2022-12-07T18:01:48;19.32;;;10.50;;
34695;SDS011;20918;51.138;17.370;2022-12-07T18:04:50;20.75;;;10.82;;
34695;SDS011;20918;51.138;17.370;2022-12-07T18:07:52;21.23;;;10.08;;
34695;SDS011;20918;51.138;17.370;2022-12-07T18:10:58;16.25;;;9.93;;
34695;SDS011;20918;51.138;17.370;2022-12-07T18:14:00;15.80;;;8.98;;
34695;SDS011;20918;51.138;17.370;2022-12-07T18:17:03;15.88;;;8.53;;
34695;SDS011;20918;51.138;17.370;2022-12-07T18:20:06;16.15;;;10.05;;
34695;SDS011;20918;51.138;17.370;2022-12-07T18:23:08;22.37;;;11.22;;
34695;SDS011;20918;51.138;17.370;2022-12-07T18:26:09;16.97;;;9.70;;
34695;SDS011;20918;51.138;17.370;2022-12-07T18:29:14;18.60;;;10.43;;
34695;SDS011;20918;51.138;17.370;2022-12-07T18:32:17;18.30;;;10.53;;
34695;SDS011;20918;51.138;17.370;2022-12-07T18:35:19;27.35;;;13.00;;
34695;SDS011;20918;51.138;17.370;2022-12-07T18:38:20;18.65;;;10.65;;
34695;SDS011;20918;51.138;17.370;2022-12-07T18:41:21;26.17;;;13.08;;
34695;SDS011;20918;51.138;17.370;2022-12-07T18:44:22;37.50;;;22.75;;
34695;SDS011;20918;51.138;17.370;2022-12-07T18:47:24;21.55;;;13.28;;
34695;SDS011;20918;51.138;17.370;2022-12-07T18:50:25;20.45;;;11.80;;
34695;SDS011;20918;51.138;17.370;2022-12-07T18:53:28;22.80;;;12.18;;
34695;SDS011;20918;51.138;17.370;2022-12-07T18:56:30;20.50;;;11.83;;
34695;SDS011;20918;51.138;17.370;2022-12-07T18:59:31;18.00;;;10.90;;
34695;SDS011;20918;51.138;17.370;2022-12-07T19:02:49;17.67;;;11.05;;
34695;SDS011;20918;51.138;17.370;2022-12-07T19:05:51;17.90;;;10.53;;
34695;SDS011;20918;51.138;17.370;2022-12-07T19:08:55;18.77;;;10.58;;
34695;SDS011;20918;51.138;17.370;2022-12-07T19:11:57;18.73;;;10.23;;
34695;SDS011;20918;51.138;17.370;2022-12-07T19:15:00;22.25;;;11.18;;
34695;SDS011;20918;51.138;17.370;2022-12-07T19:18:02;22.32;;;10.15;;
34695;SDS011;20918;51.138;17.370;2022-12-07T19:21:04;17.77;;;9.85;;
34695;SDS011;20918;51.138;17.370;2022-12-07T19:24:06;19.45;;;9.95;;
34695;SDS011;20918;51.138;17.370;2022-12-07T19:27:08;17.27;;;10.45;;
34695;SDS011;20918;51.138;17.370;2022-12-07T19:30:12;19.95;;;10.35;;
34695;SDS011;20918;51.138;17.370;2022-12-07T19:33:13;29.40;;;16.05;;
34695;SDS011;20918;51.138;17.370;2022-12-07T19:36:15;29.72;;;16.15;;
34695;SDS011;20918;51.138;17.370;2022-12-07T19:39:16;26.75;;;14.78;;
34695;SDS011;20918;51.138;17.370;2022-12-07T19:42:17;24.02;;;13.60;;
34695;SDS011;20918;51.138;17.370;2022-12-07T19:45:19;35.88;;;16.77;;